Mott, ND

10:21 PM MDT on July 09, 2014 (GMT -0600)
Hettinger Municipal (KHEI) Elev 2703 ft | 46.01 °N, 102.66 °W | Change Station

Current weather conditions updated 28 minutes ago

Clear
Clear
66 °F
Feels Like 66 °F
N
8
Wind Variable Wind from SE

Tomorrow is forecast to be nearly the same temperature as today.

Today
High -- | Low -- °F
--% Chance of Precip.
Yesterday
High -- | Low -- °F
Precip. -- in
5:06 AM 8:42 PM
Waxing Gibbous, 92% visible
Pressure 29.92 in
Visibility 10.0 miles
Clouds Clear
Dew Point 56 °F
Humidity 70%
Rainfall 0.00 in
Snow Depth Not available.
UV 0 out of 12
Pollen 4.30 out of 12
Air Quality Not available.
Flu Activity Sporadic
METAR KHEI 100353Z AUTO 14007KT 10SM CLR 19/13 A2996 RMK AO2 SLP130 T01890133

More Conditions Fewer Conditions

Pressure 29.92 in
Visibility 10.0 miles
Clouds Clear
Dew Point 56 °F
Humidity 70%
Rainfall 0.00 in
Snow Depth Not available.
UV 0 out of 12
Pollen 4.30 out of 12
Air Quality Not available.
Flu Activity Sporadic
METAR KHEI 100353Z AUTO 14007KT 10SM CLR 19/13 A2996 RMK AO2 SLP130 T01890133

More Conditions Fewer Conditions

10-Day Weather Forecast

Almanac

Astronomy

Jul. 09, 2014 Rise Set
Actual Time 5:06 AM MDT 8:42 PM MDT
Civil Twilight 4:28 AM MDT 9:20 PM MDT
Nautical Twilight 3:37 AM MDT 10:11 PM MDT
Astronomical Twilight 2:29 AM MDT 11:18 PM MDT
Moon 5:52 PM MDT (7/9) 2:32 AM MDT (7/9)
Length of Visible Light 16h 51m
Length of Day
15h 35m
Tomorrow will be 1m 24s shorter.
Waxing Gibbous, 92% of the Moon is Illuminated
Jul 10
Waxing Gibbous
Jul 12
Full
Jul 18
Last Quarter
Jul 26
New
Aug 3
First Quarter

Today's Extremes

State Highs State Lows

Community

WunderPhotos

Upload Photos

1,732,069 photos uploaded!

Nearby

Snow Depth

Station Depth Elevation
No new snow has been reported.

Earthquake Activity

City Distance Mag. Time & Date
No recent earthquake activity has been reported nearby.
Minimum magnitude displayed is 2.5.

Coastal Water Temperatures

Place Temperature
No Stations Reporting

Nearby Weather Stations

There are no personal weather stations in this area.